sensor_id;sensor_type;location;lat;lon;timestamp;noise_LAeq;noise_LA_min;noise_LA_max;noise_LA01;noise_LA95
58303;Laerm;44109;52.398;7.024;2023-08-08T00:00:09;46.37;32.59;56.30;;
58303;Laerm;44109;52.398;7.024;2023-08-08T00:05:05;46.52;32.30;56.18;;
58303;Laerm;44109;52.398;7.024;2023-08-08T00:07:33;46.45;32.27;56.61;;
58303;Laerm;44109;52.398;7.024;2023-08-08T00:10:01;46.42;33.01;56.25;;
58303;Laerm;44109;52.398;7.024;2023-08-08T00:12:31;46.45;33.65;55.89;;
58303;Laerm;44109;52.398;7.024;2023-08-08T00:14:58;46.39;33.08;56.16;;
58303;Laerm;44109;52.398;7.024;2023-08-08T00:17:26;46.30;32.38;55.92;;
58303;Laerm;44109;52.398;7.024;2023-08-08T00:19:53;46.41;32.36;56.12;;
58303;Laerm;44109;52.398;7.024;2023-08-08T00:22:21;46.65;31.50;56.59;;
58303;Laerm;44109;52.398;7.024;2023-08-08T00:24:49;46.77;32.48;56.10;;
58303;Laerm;44109;52.398;7.024;2023-08-08T00:27:16;46.45;32.38;56.08;;
58303;Laerm;44109;52.398;7.024;2023-08-08T00:29:45;46.27;32.52;56.13;;
58303;Laerm;44109;52.398;7.024;2023-08-08T00:32:13;46.67;33.92;56.36;;
58303;Laerm;44109;52.398;7.024;2023-08-08T00:34:41;46.30;31.74;55.94;;
58303;Laerm;44109;52.398;7.024;2023-08-08T00:37:09;46.33;32.21;55.88;;
58303;Laerm;44109;52.398;7.024;2023-08-08T00:39:36;46.50;32.96;56.17;;
58303;Laerm;44109;52.398;7.024;2023-08-08T00:42:04;46.30;32.56;56.09;;
58303;Laerm;44109;52.398;7.024;2023-08-08T00:44:32;46.25;32.35;55.97;;
58303;Laerm;44109;52.398;7.024;2023-08-08T00:47:01;46.19;32.65;56.11;;
58303;Laerm;44109;52.398;7.024;2023-08-08T00:49:29;46.35;32.75;56.11;;
58303;Laerm;44109;52.398;7.024;2023-08-08T00:51:57;46.26;32.89;55.96;;
58303;Laerm;44109;52.398;7.024;2023-08-08T00:54:24;46.52;32.90;56.21;;
58303;Laerm;44109;52.398;7.024;2023-08-08T00:56:52;46.24;32.70;55.92;;
58303;Laerm;44109;52.398;7.024;2023-08-08T00:59:20;46.26;32.95;55.81;;
58303;Laerm;44109;52.398;7.024;2023-08-08T01:01:49;46.33;32.56;56.13;;
58303;Laerm;44109;52.398;7.024;2023-08-08T01:04:18;46.23;32.57;55.91;;
58303;Laerm;44109;52.398;7.024;2023-08-08T01:06:57;46.43;33.51;56.09;;
58303;Laerm;44109;52.398;7.024;2023-08-08T01:09:32;46.15;33.09;55.81;;
58303;Laerm;44109;52.398;7.024;2023-08-08T01:12:02;46.19;32.66;55.93;;
58303;Laerm;44109;52.398;7.024;2023-08-08T01:14:34;46.10;32.42;56.19;;
58303;Laerm;44109;52.398;7.024;2023-08-08T01:17:04;46.20;32.76;56.11;;
58303;Laerm;44109;52.398;7.024;2023-08-08T01:19:34;46.16;32.17;56.07;;
58303;Laerm;44109;52.398;7.024;2023-08-08T01:22:05;46.18;32.89;56.36;;
58303;Laerm;44109;52.398;7.024;2023-08-08T01:24:36;46.06;32.59;56.18;;
58303;Laerm;44109;52.398;7.024;2023-08-08T01:27:05;46.15;31.90;55.99;;
58303;Laerm;44109;52.398;7.024;2023-08-08T01:29:33;46.29;34.10;56.26;;
58303;Laerm;44109;52.398;7.024;2023-08-08T01:32:01;46.35;32.66;55.96;;
58303;Laerm;44109;52.398;7.024;2023-08-08T01:34:29;46.20;32.26;56.01;;
58303;Laerm;44109;52.398;7.024;2023-08-08T01:37:06;46.01;32.20;56.34;;
58303;Laerm;44109;52.398;7.024;2023-08-08T01:39:40;45.93;32.03;56.45;;
58303;Laerm;44109;52.398;7.024;2023-08-08T01:42:10;46.10;31.95;55.99;;
58303;Laerm;44109;52.398;7.024;2023-08-08T01:44:41;46.28;33.10;56.29;;
58303;Laerm;44109;52.398;7.024;2023-08-08T01:47:09;46.21;32.77;55.99;;
58303;Laerm;44109;52.398;7.024;2023-08-08T01:49:37;46.16;32.77;56.16;;
58303;Laerm;44109;52.398;7.024;2023-08-08T01:52:05;46.24;32.22;56.03;;
58303;Laerm;44109;52.398;7.024;2023-08-08T01:54:33;46.27;32.59;56.26;;
58303;Laerm;44109;52.398;7.024;2023-08-08T01:57:02;46.05;32.09;56.43;;
58303;Laerm;44109;52.398;7.024;2023-08-08T01:59:30;46.11;31.84;56.32;;
58303;Laerm;44109;52.398;7.024;2023-08-08T02:01:58;46.35;33.13;56.39;;
58303;Laerm;44109;52.398;7.024;2023-08-08T02:04:25;46.24;32.10;56.32;;
58303;Laerm;44109;52.398;7.024;2023-08-08T02:06:53;46.12;32.76;56.18;;
58303;Laerm;44109;52.398;7.024;2023-08-08T02:09:21;46.14;32.80;55.89;;
58303;Laerm;44109;52.398;7.024;2023-08-08T02:11:48;46.31;33.10;56.17;;
58303;Laerm;44109;52.398;7.024;2023-08-08T02:14:17;46.25;32.24;56.43;;
58303;Laerm;44109;52.398;7.024;2023-08-08T02:16:45;46.19;32.87;56.33;;
58303;Laerm;44109;52.398;7.024;2023-08-08T02:19:12;46.36;33.92;56.66;;
58303;Laerm;44109;52.398;7.024;2023-08-08T02:21:41;46.30;33.07;55.98;;
58303;Laerm;44109;52.398;7.024;2023-08-08T02:24:08;46.26;32.94;56.12;;
58303;Laerm;44109;52.398;7.024;2023-08-08T02:26:36;46.32;34.62;55.93;;
58303;Laerm;44109;52.398;7.024;2023-08-08T02:29:04;46.29;33.23;57.19;;
58303;Laerm;44109;52.398;7.024;2023-08-08T02:31:33;46.54;34.54;58.63;;
58303;Laerm;44109;52.398;7.024;2023-08-08T02:34:01;46.62;33.02;57.89;;
58303;Laerm;44109;52.398;7.024;2023-08-08T02:36:28;46.23;32.55;56.27;;
58303;Laerm;44109;52.398;7.024;2023-08-08T02:38:56;46.59;34.32;56.14;;
58303;Laerm;44109;52.398;7.024;2023-08-08T02:41:24;46.56;33.80;56.20;;
58303;Laerm;44109;52.398;7.024;2023-08-08T02:43:51;46.47;33.68;56.21;;
58303;Laerm;44109;52.398;7.024;2023-08-08T02:46:19;46.26;32.22;56.17;;
58303;Laerm;44109;52.398;7.024;2023-08-08T02:48:48;46.17;32.68;56.06;;
58303;Laerm;44109;52.398;7.024;2023-08-08T02:51:15;46.30;32.65;56.09;;
58303;Laerm;44109;52.398;7.024;2023-08-08T02:53:43;46.24;33.60;56.19;;
58303;Laerm;44109;52.398;7.024;2023-08-08T02:56:11;46.53;34.44;56.50;;
58303;Laerm;44109;52.398;7.024;2023-08-08T02:58:38;46.39;33.39;56.21;;
58303;Laerm;44109;52.398;7.024;2023-08-08T03:01:06;46.25;32.77;56.34;;
58303;Laerm;44109;52.398;7.024;2023-08-08T03:03:33;46.20;32.50;56.34;;
58303;Laerm;44109;52.398;7.024;2023-08-08T03:06:03;46.22;32.45;56.33;;
58303;Laerm;44109;52.398;7.024;2023-08-08T03:08:31;46.23;32.44;56.23;;
58303;Laerm;44109;52.398;7.024;2023-08-08T03:10:59;46.85;32.70;56.53;;
58303;Laerm;44109;52.398;7.024;2023-08-08T03:13:27;46.22;33.00;56.31;;
58303;Laerm;44109;52.398;7.024;2023-08-08T03:15:54;46.30;32.51;56.01;;
58303;Laerm;44109;52.398;7.024;2023-08-08T03:18:23;46.39;33.18;56.34;;
58303;Laerm;44109;52.398;7.024;2023-08-08T03:20:52;46.67;33.14;56.36;;
58303;Laerm;44109;52.398;7.024;2023-08-08T03:23:21;46.25;32.17;56.28;;
58303;Laerm;44109;52.398;7.024;2023-08-08T03:25:49;46.27;32.54;56.58;;
58303;Laerm;44109;52.398;7.024;2023-08-08T03:28:17;46.48;33.12;56.18;;
58303;Laerm;44109;52.398;7.024;2023-08-08T03:30:45;46.78;34.30;56.16;;
58303;Laerm;44109;52.398;7.024;2023-08-08T03:33:12;46.43;33.66;58.71;;
58303;Laerm;44109;52.398;7.024;2023-08-08T03:35:40;46.85;33.26;59.56;;
58303;Laerm;44109;52.398;7.024;2023-08-08T03:38:09;46.47;34.02;56.15;;
58303;Laerm;44109;52.398;7.024;2023-08-08T03:40:38;46.60;33.35;56.96;;
58303;Laerm;44109;52.398;7.024;2023-08-08T03:43:06;47.19;36.21;56.49;;
58303;Laerm;44109;52.398;7.024;2023-08-08T03:45:34;46.62;33.23;56.37;;
58303;Laerm;44109;52.398;7.024;2023-08-08T03:48:01;47.00;33.42;64.68;;
58303;Laerm;44109;52.398;7.024;2023-08-08T03:50:29;46.61;34.46;56.71;;
58303;Laerm;44109;52.398;7.024;2023-08-08T03:52:56;47.32;35.40;56.51;;
58303;Laerm;44109;52.398;7.024;2023-08-08T03:55:24;46.66;34.09;56.28;;
58303;Laerm;44109;52.398;7.024;2023-08-08T03:57:54;46.51;33.47;56.78;;
58303;Laerm;44109;52.398;7.024;2023-08-08T04:00:21;47.04;34.66;61.07;;
58303;Laerm;44109;52.398;7.024;2023-08-08T04:02:49;47.55;33.57;65.38;;
58303;Laerm;44109;52.398;7.024;2023-08-08T04:05:17;47.55;33.79;56.31;;
58303;Laerm;44109;52.398;7.024;2023-08-08T04:07:45;47.26;33.87;64.40;;
58303;Laerm;44109;52.398;7.024;2023-08-08T04:10:12;46.85;34.19;56.46;;
58303;Laerm;44109;52.398;7.024;2023-08-08T04:12:40;46.80;33.99;59.47;;
58303;Laerm;44109;52.398;7.024;2023-08-08T04:15:09;46.87;33.62;56.69;;
58303;Laerm;44109;52.398;7.024;2023-08-08T04:17:37;46.94;32.97;56.83;;
58303;Laerm;44109;52.398;7.024;2023-08-08T04:20:06;47.48;35.71;56.56;;
58303;Laerm;44109;52.398;7.024;2023-08-08T04:22:36;48.75;34.95;69.56;;
58303;Laerm;44109;52.398;7.024;2023-08-08T04:25:05;47.94;34.96;68.60;;
58303;Laerm;44109;52.398;7.024;2023-08-08T04:27:34;47.57;34.48;65.92;;
58303;Laerm;44109;52.398;7.024;2023-08-08T04:30:02;47.49;36.05;66.37;;
58303;Laerm;44109;52.398;7.024;2023-08-08T04:32:31;47.39;34.91;59.76;;
58303;Laerm;44109;52.398;7.024;2023-08-08T04:34:59;46.88;36.28;58.74;;
58303;Laerm;44109;52.398;7.024;2023-08-08T04:37:27;47.17;34.50;57.95;;
58303;Laerm;44109;52.398;7.024;2023-08-08T04:39:54;47.54;36.28;57.12;;
58303;Laerm;44109;52.398;7.024;2023-08-08T04:42:22;48.18;36.69;67.15;;
58303;Laerm;44109;52.398;7.024;2023-08-08T04:44:50;47.52;35.96;60.42;;
58303;Laerm;44109;52.398;7.024;2023-08-08T04:47:17;47.51;34.53;65.28;;
58303;Laerm;44109;52.398;7.024;2023-08-08T04:49:46;48.15;35.87;60.01;;
58303;Laerm;44109;52.398;7.024;2023-08-08T04:52:14;47.53;34.99;63.54;;
58303;Laerm;44109;52.398;7.024;2023-08-08T04:54:42;47.07;35.14;58.75;;
58303;Laerm;44109;52.398;7.024;2023-08-08T04:57:10;47.32;35.01;58.98;;
58303;Laerm;44109;52.398;7.024;2023-08-08T04:59:38;47.94;36.71;63.48;;
58303;Laerm;44109;52.398;7.024;2023-08-08T05:02:05;47.47;35.50;60.84;;
58303;Laerm;44109;52.398;7.024;2023-08-08T05:04:33;47.57;35.34;58.18;;
58303;Laerm;44109;52.398;7.024;2023-08-08T05:07:02;47.32;34.75;56.88;;
58303;Laerm;44109;52.398;7.024;2023-08-08T05:09:30;47.92;35.41;62.61;;
58303;Laerm;44109;52.398;7.024;2023-08-08T05:11:58;48.50;35.60;60.43;;
58303;Laerm;44109;52.398;7.024;2023-08-08T05:14:25;48.06;35.73;64.00;;
58303;Laerm;44109;52.398;7.024;2023-08-08T05:16:53;47.77;35.56;58.84;;
58303;Laerm;44109;52.398;7.024;2023-08-08T05:19:21;48.95;36.37;63.12;;
58303;Laerm;44109;52.398;7.024;2023-08-08T05:21:48;48.85;38.23;64.60;;
58303;Laerm;44109;52.398;7.024;2023-08-08T05:24:17;48.88;35.80;60.59;;
58303;Laerm;44109;52.398;7.024;2023-08-08T05:26:45;48.71;37.70;57.88;;
58303;Laerm;44109;52.398;7.024;2023-08-08T05:29:12;48.28;37.04;57.19;;
58303;Laerm;44109;52.398;7.024;2023-08-08T05:31:40;48.49;38.33;59.30;;
58303;Laerm;44109;52.398;7.024;2023-08-08T05:34:08;48.06;35.51;69.54;;
58303;Laerm;44109;52.398;7.024;2023-08-08T05:36:35;47.89;37.15;57.15;;
58303;Laerm;44109;52.398;7.024;2023-08-08T05:39:03;49.34;37.40;66.03;;
58303;Laerm;44109;52.398;7.024;2023-08-08T05:41:34;48.75;36.64;65.40;;
58303;Laerm;44109;52.398;7.024;2023-08-08T05:44:02;48.34;36.79;58.88;;
58303;Laerm;44109;52.398;7.024;2023-08-08T05:46:30;48.47;39.75;57.45;;
58303;Laerm;44109;52.398;7.024;2023-08-08T05:48:57;48.25;36.91;62.43;;
58303;Laerm;44109;52.398;7.024;2023-08-08T05:51:25;48.75;36.80;70.70;;
58303;Laerm;44109;52.398;7.024;2023-08-08T05:53:52;48.56;38.90;58.91;;
58303;Laerm;44109;52.398;7.024;2023-08-08T05:56:20;49.30;36.78;67.74;;
58303;Laerm;44109;52.398;7.024;2023-08-08T05:58:49;50.52;38.42;67.84;;
58303;Laerm;44109;52.398;7.024;2023-08-08T06:01:17;49.35;37.06;69.97;;
58303;Laerm;44109;52.398;7.024;2023-08-08T06:03:44;49.35;37.65;66.22;;
58303;Laerm;44109;52.398;7.024;2023-08-08T06:06:12;49.07;38.31;63.06;;
58303;Laerm;44109;52.398;7.024;2023-08-08T06:08:40;48.82;37.48;63.56;;
58303;Laerm;44109;52.398;7.024;2023-08-08T06:11:08;49.47;37.15;62.14;;
58303;Laerm;44109;52.398;7.024;2023-08-08T06:13:36;48.39;38.53;58.51;;
58303;Laerm;44109;52.398;7.024;2023-08-08T06:16:05;50.64;37.85;70.65;;
58303;Laerm;44109;52.398;7.024;2023-08-08T06:18:33;50.24;37.37;69.42;;
58303;Laerm;44109;52.398;7.024;2023-08-08T06:21:01;49.02;37.27;72.11;;
58303;Laerm;44109;52.398;7.024;2023-08-08T06:23:29;49.64;37.22;72.50;;
58303;Laerm;44109;52.398;7.024;2023-08-08T06:25:57;50.42;38.78;76.24;;
58303;Laerm;44109;52.398;7.024;2023-08-08T06:28:24;50.62;38.04;75.12;;
58303;Laerm;44109;52.398;7.024;2023-08-08T06:30:52;50.33;39.34;73.40;;
58303;Laerm;44109;52.398;7.024;2023-08-08T06:33:21;49.93;39.52;60.60;;
58303;Laerm;44109;52.398;7.024;2023-08-08T06:35:48;51.17;39.78;66.82;;
58303;Laerm;44109;52.398;7.024;2023-08-08T06:38:16;49.97;37.44;65.73;;
58303;Laerm;44109;52.398;7.024;2023-08-08T06:40:44;49.78;40.13;63.38;;
58303;Laerm;44109;52.398;7.024;2023-08-08T06:43:11;53.80;44.42;76.00;;
58303;Laerm;44109;52.398;7.024;2023-08-08T06:45:39;52.08;39.59;72.19;;
58303;Laerm;44109;52.398;7.024;2023-08-08T06:48:07;52.27;40.25;76.40;;
58303;Laerm;44109;52.398;7.024;2023-08-08T06:50:36;49.83;39.53;59.74;;
58303;Laerm;44109;52.398;7.024;2023-08-08T06:53:05;50.77;40.56;73.23;;
58303;Laerm;44109;52.398;7.024;2023-08-08T06:55:32;51.68;39.45;75.92;;
58303;Laerm;44109;52.398;7.024;2023-08-08T06:58:00;51.35;40.83;74.33;;
58303;Laerm;44109;52.398;7.024;2023-08-08T07:00:28;51.74;38.67;75.84;;
58303;Laerm;44109;52.398;7.024;2023-08-08T07:02:55;52.91;40.84;76.03;;
58303;Laerm;44109;52.398;7.024;2023-08-08T07:05:23;51.43;40.76;75.48;;
58303;Laerm;44109;52.398;7.024;2023-08-08T07:07:53;51.34;39.80;75.88;;
58303;Laerm;44109;52.398;7.024;2023-08-08T07:10:21;51.41;36.54;75.98;;
58303;Laerm;44109;52.398;7.024;2023-08-08T07:12:49;51.25;40.14;72.89;;
58303;Laerm;44109;52.398;7.024;2023-08-08T07:15:16;52.01;42.25;76.44;;
58303;Laerm;44109;52.398;7.024;2023-08-08T07:17:44;54.18;42.45;70.76;;
58303;Laerm;44109;52.398;7.024;2023-08-08T07:20:12;50.69;39.55;67.57;;
58303;Laerm;44109;52.398;7.024;2023-08-08T07:22:41;49.10;38.02;65.41;;
58303;Laerm;44109;52.398;7.024;2023-08-08T07:25:10;50.60;40.82;59.10;;
58303;Laerm;44109;52.398;7.024;2023-08-08T07:27:38;50.85;40.50;74.78;;
58303;Laerm;44109;52.398;7.024;2023-08-08T07:30:07;49.90;39.06;62.28;;
58303;Laerm;44109;52.398;7.024;2023-08-08T07:32:35;49.70;39.93;62.57;;
58303;Laerm;44109;52.398;7.024;2023-08-08T07:35:05;52.24;43.57;63.86;;
58303;Laerm;44109;52.398;7.024;2023-08-08T07:37:34;50.36;40.78;58.27;;
58303;Laerm;44109;52.398;7.024;2023-08-08T07:40:03;49.88;39.94;59.82;;
58303;Laerm;44109;52.398;7.024;2023-08-08T07:42:32;53.36;41.48;64.28;;
58303;Laerm;44109;52.398;7.024;2023-08-08T07:45:00;52.89;44.42;63.14;;
58303;Laerm;44109;52.398;7.024;2023-08-08T07:47:27;50.19;38.59;64.01;;
58303;Laerm;44109;52.398;7.024;2023-08-08T07:49:55;50.24;38.91;60.12;;
58303;Laerm;44109;52.398;7.024;2023-08-08T07:52:23;55.89;45.79;72.25;;
58303;Laerm;44109;52.398;7.024;2023-08-08T07:54:51;54.19;42.98;77.19;;
58303;Laerm;44109;52.398;7.024;2023-08-08T07:57:19;50.25;41.46;59.90;;
58303;Laerm;44109;52.398;7.024;2023-08-08T07:59:48;50.19;39.62;58.57;;
58303;Laerm;44109;52.398;7.024;2023-08-08T08:02:15;50.04;40.35;69.52;;
58303;Laerm;44109;52.398;7.024;2023-08-08T08:04:43;49.92;38.76;64.24;;
58303;Laerm;44109;52.398;7.024;2023-08-08T08:07:10;50.51;39.71;65.72;;
58303;Laerm;44109;52.398;7.024;2023-08-08T08:09:38;49.89;41.43;57.86;;
58303;Laerm;44109;52.398;7.024;2023-08-08T08:12:08;51.02;41.73;65.56;;
58303;Laerm;44109;52.398;7.024;2023-08-08T08:14:36;50.42;42.23;63.38;;
58303;Laerm;44109;52.398;7.024;2023-08-08T08:17:05;56.21;38.94;83.83;;
58303;Laerm;44109;52.398;7.024;2023-08-08T08:19:33;50.21;41.62;65.97;;
58303;Laerm;44109;52.398;7.024;2023-08-08T08:22:00;50.11;42.92;58.00;;
58303;Laerm;44109;52.398;7.024;2023-08-08T08:24:28;50.40;38.37;61.56;;
58303;Laerm;44109;52.398;7.024;2023-08-08T08:26:56;52.07;41.64;71.34;;
58303;Laerm;44109;52.398;7.024;2023-08-08T08:29:23;50.99;42.00;63.72;;
58303;Laerm;44109;52.398;7.024;2023-08-08T08:31:51;53.18;43.41;66.92;;
58303;Laerm;44109;52.398;7.024;2023-08-08T08:34:20;53.65;42.34;75.24;;
58303;Laerm;44109;52.398;7.024;2023-08-08T08:36:47;54.33;44.19;72.67;;
58303;Laerm;44109;52.398;7.024;2023-08-08T08:39:15;52.77;42.02;75.92;;
58303;Laerm;44109;52.398;7.024;2023-08-08T08:41:44;56.70;43.68;84.50;;
58303;Laerm;44109;52.398;7.024;2023-08-08T08:44:16;52.87;46.16;60.62;;
58303;Laerm;44109;52.398;7.024;2023-08-08T08:46:47;52.55;40.21;64.84;;
58303;Laerm;44109;52.398;7.024;2023-08-08T08:49:19;54.79;45.73;68.31;;
58303;Laerm;44109;52.398;7.024;2023-08-08T08:51:49;52.43;44.30;60.05;;
58303;Laerm;44109;52.398;7.024;2023-08-08T08:54:17;53.55;43.45;64.14;;
58303;Laerm;44109;52.398;7.024;2023-08-08T08:56:45;52.78;41.87;61.58;;
58303;Laerm;44109;52.398;7.024;2023-08-08T08:59:13;51.94;41.80;66.56;;
58303;Laerm;44109;52.398;7.024;2023-08-08T09:01:41;52.57;41.11;63.89;;
58303;Laerm;44109;52.398;7.024;2023-08-08T09:04:10;52.09;41.96;60.44;;
58303;Laerm;44109;52.398;7.024;2023-08-08T09:06:40;52.44;43.09;65.46;;
58303;Laerm;44109;52.398;7.024;2023-08-08T09:09:08;54.22;45.59;73.70;;
58303;Laerm;44109;52.398;7.024;2023-08-08T09:11:35;56.10;44.76;78.10;;
58303;Laerm;44109;52.398;7.024;2023-08-08T09:14:03;52.84;42.24;79.20;;
58303;Laerm;44109;52.398;7.024;2023-08-08T09:16:31;52.08;39.89;82.78;;
58303;Laerm;44109;52.398;7.024;2023-08-08T09:18:59;50.76;41.57;59.69;;
58303;Laerm;44109;52.398;7.024;2023-08-08T09:21:27;52.91;43.51;67.05;;
58303;Laerm;44109;52.398;7.024;2023-08-08T09:23:56;51.72;42.12;65.06;;
58303;Laerm;44109;52.398;7.024;2023-08-08T09:26:24;51.08;43.06;67.90;;
58303;Laerm;44109;52.398;7.024;2023-08-08T09:28:52;51.65;43.00;68.45;;
58303;Laerm;44109;52.398;7.024;2023-08-08T09:31:20;52.58;43.95;66.77;;
58303;Laerm;44109;52.398;7.024;2023-08-08T09:33:48;52.16;42.91;70.16;;
58303;Laerm;44109;52.398;7.024;2023-08-08T09:36:18;53.04;43.15;68.68;;
58303;Laerm;44109;52.398;7.024;2023-08-08T09:38:46;51.86;42.73;65.63;;
58303;Laerm;44109;52.398;7.024;2023-08-08T09:41:15;53.42;43.95;64.32;;
58303;Laerm;44109;52.398;7.024;2023-08-08T09:43:43;50.79;42.17;63.30;;
58303;Laerm;44109;52.398;7.024;2023-08-08T09:46:12;50.62;40.79;66.69;;
58303;Laerm;44109;52.398;7.024;2023-08-08T09:48:41;51.45;42.84;60.14;;
58303;Laerm;44109;52.398;7.024;2023-08-08T09:51:09;51.05;39.87;62.09;;
58303;Laerm;44109;52.398;7.024;2023-08-08T09:53:36;53.34;41.95;73.98;;
58303;Laerm;44109;52.398;7.024;2023-08-08T09:56:07;50.64;39.99;64.15;;
58303;Laerm;44109;52.398;7.024;2023-08-08T09:58:36;50.50;40.51;59.95;;
58303;Laerm;44109;52.398;7.024;2023-08-08T10:01:06;53.54;45.05;65.10;;
58303;Laerm;44109;52.398;7.024;2023-08-08T10:03:34;51.38;41.73;64.63;;
58303;Laerm;44109;52.398;7.024;2023-08-08T10:06:04;50.79;40.88;60.68;;
58303;Laerm;44109;52.398;7.024;2023-08-08T10:08:31;50.50;42.17;59.21;;
58303;Laerm;44109;52.398;7.024;2023-08-08T10:11:00;50.78;40.62;66.72;;
58303;Laerm;44109;52.398;7.024;2023-08-08T10:13:28;51.24;41.47;70.86;;
58303;Laerm;44109;52.398;7.024;2023-08-08T10:15:57;52.38;43.67;65.72;;
58303;Laerm;44109;52.398;7.024;2023-08-08T10:18:31;53.28;45.36;62.05;;
58303;Laerm;44109;52.398;7.024;2023-08-08T10:20:59;58.50;44.24;86.32;;
58303;Laerm;44109;52.398;7.024;2023-08-08T10:23:36;75.07;55.71;97.13;;
58303;Laerm;44109;52.398;7.024;2023-08-08T10:26:16;63.77;46.80;92.52;;
58303;Laerm;44109;52.398;7.024;2023-08-08T10:28:53;59.51;42.79;89.32;;
58303;Laerm;44109;52.398;7.024;2023-08-08T10:31:24;55.04;41.37;85.20;;
58303;Laerm;44109;52.398;7.024;2023-08-08T10:34:02;49.95;41.05;68.72;;
58303;Laerm;44109;52.398;7.024;2023-08-08T10:36:47;50.08;40.78;71.81;;
58303;Laerm;44109;52.398;7.024;2023-08-08T10:39:16;49.06;40.58;60.86;;
58303;Laerm;44109;52.398;7.024;2023-08-08T10:41:47;49.11;40.93;56.94;;
58303;Laerm;44109;52.398;7.024;2023-08-08T10:44:22;49.10;39.25;62.26;;
58303;Laerm;44109;52.398;7.024;2023-08-08T10:46:53;49.49;39.30;71.29;;
58303;Laerm;44109;52.398;7.024;2023-08-08T10:49:21;50.43;40.60;72.52;;
58303;Laerm;44109;52.398;7.024;2023-08-08T10:51:50;52.31;40.72;67.24;;
58303;Laerm;44109;52.398;7.024;2023-08-08T10:54:22;48.76;40.44;62.85;;
58303;Laerm;44109;52.398;7.024;2023-08-08T10:56:55;49.43;41.95;57.74;;
58303;Laerm;44109;52.398;7.024;2023-08-08T10:59:25;51.55;44.59;59.89;;
58303;Laerm;44109;52.398;7.024;2023-08-08T11:01:55;54.47;46.00;68.13;;
58303;Laerm;44109;52.398;7.024;2023-08-08T11:04:24;54.74;44.78;81.45;;
58303;Laerm;44109;52.398;7.024;2023-08-08T11:06:53;52.02;43.78;70.86;;
58303;Laerm;44109;52.398;7.024;2023-08-08T11:09:22;58.59;46.11;67.79;;
58303;Laerm;44109;52.398;7.024;2023-08-08T11:11:50;60.92;49.34;76.64;;
58303;Laerm;44109;52.398;7.024;2023-08-08T11:14:19;57.68;47.63;70.07;;
58303;Laerm;44109;52.398;7.024;2023-08-08T11:16:50;60.53;49.32;81.46;;
58303;Laerm;44109;52.398;7.024;2023-08-08T11:19:19;59.62;46.73;77.25;;
58303;Laerm;44109;52.398;7.024;2023-08-08T11:21:48;54.84;45.75;68.47;;
58303;Laerm;44109;52.398;7.024;2023-08-08T11:24:16;50.42;42.06;58.80;;
58303;Laerm;44109;52.398;7.024;2023-08-08T11:26:45;56.37;44.36;69.81;;
58303;Laerm;44109;52.398;7.024;2023-08-08T11:29:13;55.54;46.71;68.21;;
58303;Laerm;44109;52.398;7.024;2023-08-08T11:31:41;54.84;45.51;69.43;;
58303;Laerm;44109;52.398;7.024;2023-08-08T11:34:09;55.83;45.38;80.53;;
58303;Laerm;44109;52.398;7.024;2023-08-08T11:36:40;59.64;49.89;69.03;;
58303;Laerm;44109;52.398;7.024;2023-08-08T11:39:08;59.00;50.08;68.66;;
58303;Laerm;44109;52.398;7.024;2023-08-08T11:41:37;52.55;44.08;63.74;;
58303;Laerm;44109;52.398;7.024;2023-08-08T11:44:07;52.37;45.58;64.27;;
58303;Laerm;44109;52.398;7.024;2023-08-08T11:46:43;53.00;45.52;61.60;;
58303;Laerm;44109;52.398;7.024;2023-08-08T11:49:14;51.46;42.51;62.92;;
58303;Laerm;44109;52.398;7.024;2023-08-08T11:51:45;53.17;45.07;67.51;;
58303;Laerm;44109;52.398;7.024;2023-08-08T11:54:13;56.47;47.68;71.51;;
58303;Laerm;44109;52.398;7.024;2023-08-08T11:56:42;54.91;45.39;67.05;;
58303;Laerm;44109;52.398;7.024;2023-08-08T11:59:09;55.63;45.31;69.18;;
58303;Laerm;44109;52.398;7.024;2023-08-08T12:01:38;54.56;42.50;66.59;;
58303;Laerm;44109;52.398;7.024;2023-08-08T12:04:08;51.61;41.73;61.17;;
58303;Laerm;44109;52.398;7.024;2023-08-08T12:06:37;51.56;43.33;59.30;;
58303;Laerm;44109;52.398;7.024;2023-08-08T12:09:07;53.91;44.60;66.01;;
58303;Laerm;44109;52.398;7.024;2023-08-08T12:11:39;53.94;45.03;64.53;;
58303;Laerm;44109;52.398;7.024;2023-08-08T12:14:08;54.47;44.29;68.21;;
58303;Laerm;44109;52.398;7.024;2023-08-08T12:16:38;53.73;45.29;62.02;;
58303;Laerm;44109;52.398;7.024;2023-08-08T12:19:08;55.00;46.62;71.26;;
58303;Laerm;44109;52.398;7.024;2023-08-08T12:21:37;53.18;44.28;72.61;;
58303;Laerm;44109;52.398;7.024;2023-08-08T12:24:07;54.03;45.97;74.67;;
58303;Laerm;44109;52.398;7.024;2023-08-08T12:26:35;51.46;42.98;74.77;;
58303;Laerm;44109;52.398;7.024;2023-08-08T12:29:03;60.16;46.88;84.57;;
58303;Laerm;44109;52.398;7.024;2023-08-08T12:31:31;60.71;45.04;90.72;;
58303;Laerm;44109;52.398;7.024;2023-08-08T12:33:59;52.41;41.61;74.73;;
58303;Laerm;44109;52.398;7.024;2023-08-08T12:36:28;48.28;40.04;63.93;;
58303;Laerm;44109;52.398;7.024;2023-08-08T12:38:55;48.26;38.97;62.53;;
58303;Laerm;44109;52.398;7.024;2023-08-08T12:41:24;48.03;39.06;57.21;;
58303;Laerm;44109;52.398;7.024;2023-08-08T12:43:52;49.72;39.60;75.99;;
58303;Laerm;44109;52.398;7.024;2023-08-08T12:46:20;52.37;44.08;62.40;;
58303;Laerm;44109;52.398;7.024;2023-08-08T12:48:47;52.99;44.28;67.07;;
58303;Laerm;44109;52.398;7.024;2023-08-08T12:51:15;53.43;46.69;62.98;;
58303;Laerm;44109;52.398;7.024;2023-08-08T12:53:44;57.35;44.83;80.77;;
58303;Laerm;44109;52.398;7.024;2023-08-08T12:56:11;50.95;42.09;60.94;;
58303;Laerm;44109;52.398;7.024;2023-08-08T12:58:40;51.06;41.12;61.35;;
58303;Laerm;44109;52.398;7.024;2023-08-08T13:01:08;60.65;48.74;77.11;;
58303;Laerm;44109;52.398;7.024;2023-08-08T13:03:35;53.50;44.75;73.20;;
58303;Laerm;44109;52.398;7.024;2023-08-08T13:06:03;60.72;47.22;88.25;;
58303;Laerm;44109;52.398;7.024;2023-08-08T13:08:31;52.71;46.40;59.61;;
58303;Laerm;44109;52.398;7.024;2023-08-08T13:11:00;54.70;47.02;61.13;;
58303;Laerm;44109;52.398;7.024;2023-08-08T13:13:28;56.69;47.27;67.08;;
58303;Laerm;44109;52.398;7.024;2023-08-08T13:15:57;55.71;46.27;67.71;;
58303;Laerm;44109;52.398;7.024;2023-08-08T13:18:25;51.25;43.31;65.69;;
58303;Laerm;44109;52.398;7.024;2023-08-08T13:20:53;52.48;41.82;74.46;;
58303;Laerm;44109;52.398;7.024;2023-08-08T13:23:20;53.60;45.17;71.94;;
58303;Laerm;44109;52.398;7.024;2023-08-08T13:25:48;49.96;41.71;57.93;;
58303;Laerm;44109;52.398;7.024;2023-08-08T13:28:15;50.24;42.50;57.89;;
58303;Laerm;44109;52.398;7.024;2023-08-08T13:30:43;58.74;44.77;76.60;;
58303;Laerm;44109;52.398;7.024;2023-08-08T13:33:12;54.28;45.36;65.95;;
58303;Laerm;44109;52.398;7.024;2023-08-08T13:35:39;55.29;45.18;65.12;;
58303;Laerm;44109;52.398;7.024;2023-08-08T13:38:07;55.59;46.12;78.94;;
58303;Laerm;44109;52.398;7.024;2023-08-08T13:40:40;56.30;46.66;68.79;;
58303;Laerm;44109;52.398;7.024;2023-08-08T13:43:08;52.72;44.93;66.35;;
58303;Laerm;44109;52.398;7.024;2023-08-08T13:45:36;54.54;43.19;71.37;;
58303;Laerm;44109;52.398;7.024;2023-08-08T13:48:04;58.34;51.70;67.49;;
58303;Laerm;44109;52.398;7.024;2023-08-08T13:50:33;54.62;43.90;65.42;;
58303;Laerm;44109;52.398;7.024;2023-08-08T13:53:01;50.84;41.80;59.57;;